createdAt,value
2022-12-07T01:21:30.130Z,97005.09
2022-12-07T01:30:25.786Z,97019.78
2022-12-07T02:45:53.376Z,97002.56
2022-12-07T03:18:35.425Z,96991.91
2022-12-07T03:45:32.205Z,96980.31
2022-12-07T03:49:37.562Z,96985.81
2022-12-07T03:57:37.515Z,96976.88
2022-12-07T05:20:53.327Z,96918.97
2022-12-07T05:39:45.992Z,96946.84
2022-12-07T05:43:37.046Z,96940.75
2022-12-07T05:52:51.956Z,96947.47
2022-12-07T06:26:13.166Z,96969.72
2022-12-07T06:33:06.949Z,96976.63
2022-12-07T06:35:53.789Z,96971.81
2022-12-07T06:38:40.694Z,96980.66
2022-12-07T06:41:27.428Z,96976.69
2022-12-07T06:44:14.273Z,96987.06
2022-12-07T06:47:31.810Z,96994.09
2022-12-07T06:50:08.706Z,96990.09
2022-12-07T06:52:55.535Z,96991.78
2022-12-07T06:55:42.480Z,96990.94
2022-12-07T06:58:29.236Z,96991.78
2022-12-07T07:01:20.746Z,96979.75
2022-12-07T07:04:07.655Z,96990.09
2022-12-07T07:06:59.814Z,96984.03
2022-12-07T07:09:47.028Z,96989.44
2022-12-07T07:12:34.005Z,96995.53
2022-12-07T07:15:20.810Z,97002.44
2022-12-07T07:18:08.174Z,96999.13
2022-12-07T07:20:55.770Z,96996.63
2022-12-07T07:23:42.668Z,97003.53
2022-12-07T07:26:29.482Z,97000.38
2022-12-07T07:29:19.009Z,97007.16
2022-12-07T07:32:07.005Z,97002.16
2022-12-07T07:34:53.911Z,97003.97
2022-12-07T07:37:41.640Z,97003.00
2022-12-07T07:40:30.185Z,97010.88
2022-12-07T07:43:17.007Z,97001.63
2022-12-07T07:46:03.974Z,97008.41
2022-12-07T07:48:52.260Z,97002.31
2022-12-07T07:51:39.140Z,97004.25
2022-12-07T07:54:31.174Z,97006.06
2022-12-07T07:57:20.909Z,97013.13
2022-12-07T08:00:12.090Z,97010.38
2022-12-07T08:02:58.939Z,97008.97
2022-12-07T08:05:45.934Z,97001.94
2022-12-07T08:08:33.174Z,97007.19
2022-12-07T08:11:20.014Z,97014.94
2022-12-07T08:14:06.865Z,97016.75
2022-12-07T08:16:53.844Z,97022.13
2022-12-07T08:19:40.643Z,97011.75
2022-12-07T08:22:28.232Z,97023.94
2022-12-07T08:25:15.139Z,97028.22
2022-12-07T08:28:01.984Z,97043.03
2022-12-07T08:30:49.138Z,97036.13
2022-12-07T08:33:36.180Z,97031.69
2022-12-07T08:36:24.027Z,97024.06
2022-12-07T08:42:17.986Z,97029.06
2022-12-07T08:45:10.106Z,97032.78
2022-12-07T08:48:05.257Z,97032.78
2022-12-07T08:50:52.259Z,97029.34
2022-12-07T08:53:39.927Z,97029.63
2022-12-07T08:56:27.249Z,97033.06
2022-12-07T08:59:16.141Z,97033.78
2022-12-07T09:02:03.024Z,97034.72
2022-12-07T09:04:52.326Z,97029.63
2022-12-07T09:07:39.064Z,97037.22
2022-12-07T09:10:26.901Z,97035.56
2022-12-07T09:13:13.732Z,97031.41
2022-12-07T09:16:03.444Z,97028.63
2022-12-07T09:18:50.286Z,97024.19
2022-12-07T09:21:37.093Z,97030.31
2022-12-07T09:24:23.991Z,97025.88
2022-12-07T09:27:10.830Z,97026.72
2022-12-07T09:30:01.013Z,97030.16
2022-12-07T09:32:48.228Z,97023.53
2022-12-07T09:35:35.175Z,97013.69
2022-12-07T09:38:22.134Z,97013.69
2022-12-07T09:41:09.069Z,97023.25
2022-12-07T09:44:17.724Z,97010.94
2022-12-07T09:47:04.689Z,97016.19
2022-12-07T09:49:51.753Z,97013.56
2022-12-07T09:52:39.455Z,97006.50
2022-12-07T09:55:29.082Z,97007.19
2022-12-07T09:58:25.109Z,97009.13
2022-12-07T10:01:16.178Z,97016.59
2022-12-07T10:04:14.051Z,97012.16
2022-12-07T10:07:01.686Z,97003.59
2022-12-07T10:09:49.684Z,97002.78
2022-12-07T10:12:57.953Z,97003.31
2022-12-07T10:15:51.088Z,97004.13
2022-12-07T10:18:42.091Z,96998.88
2022-12-07T10:21:28.917Z,96994.44
2022-12-07T10:24:16.300Z,96999.53
2022-12-07T10:27:03.110Z,96993.19
2022-12-07T10:29:52.393Z,96991.53
2022-12-07T10:32:39.078Z,96984.19
2022-12-07T10:35:30.910Z,96983.34
2022-12-07T10:38:17.931Z,96985.13
2022-12-07T10:41:08.751Z,96990.09
2022-12-07T10:43:57.662Z,96978.78
2022-12-07T10:46:52.811Z,96972.53
2022-12-07T10:49:39.532Z,96967.13
2022-12-07T10:52:59.935Z,96966.16
2022-12-07T10:56:05.523Z,96968.34
2022-12-07T10:59:17.515Z,96964.88
2022-12-07T11:02:23.169Z,96959.50
2022-12-07T11:05:31.402Z,96957.53
2022-12-07T11:08:31.559Z,96954.91
2022-12-07T11:11:42.422Z,96938.47
2022-12-07T11:14:43.063Z,96950.34
2022-12-07T11:17:45.176Z,96958.06
2022-12-07T11:20:41.320Z,96956.13
2022-12-07T11:23:54.004Z,96937.84
2022-12-07T11:26:54.393Z,96940.19
2022-12-07T11:29:41.180Z,96944.19
2022-12-07T11:32:41.423Z,96941.44
2022-12-07T11:35:44.038Z,96943.91
2022-12-07T11:38:55.859Z,96939.78
2022-12-07T11:41:43.501Z,96933.38
2022-12-07T11:44:54.366Z,96929.63
2022-12-07T11:48:09.294Z,96935.56
2022-12-07T11:50:59.847Z,96929.47
2022-12-07T11:53:53.755Z,96920.22
2022-12-07T11:56:40.653Z,96908.72
2022-12-07T11:59:33.705Z,96920.31
2022-12-07T12:02:36.677Z,96915.28
2022-12-07T12:05:25.431Z,96902.13
2022-12-07T12:11:43.370Z,96903.94
2022-12-07T12:15:07.929Z,96908.97
2022-12-07T12:18:23.974Z,96895.50
2022-12-07T12:21:19.984Z,96902.00
2022-12-07T12:24:28.326Z,96904.97
2022-12-07T12:27:31.632Z,96906.03
2022-12-07T12:30:39.699Z,96891.75
2022-12-07T12:33:31.476Z,96886.47
2022-12-07T12:36:46.400Z,96895.25
2022-12-07T12:39:33.408Z,96882.91
2022-12-07T12:42:20.323Z,96883.22
2022-12-07T12:45:19.665Z,96888.38
2022-12-07T12:48:42.063Z,96878.31
2022-12-07T12:51:41.006Z,96896.13
2022-12-07T12:54:34.125Z,96892.38
2022-12-07T12:57:32.096Z,96896.50
2022-12-07T13:00:23.396Z,96892.22
2022-12-07T13:03:23.833Z,96887.78
2022-12-07T13:06:25.780Z,96886.31
2022-12-07T13:09:32.844Z,96875.78
2022-12-07T13:12:23.576Z,96887.16
2022-12-07T13:15:33.267Z,96885.84
2022-12-07T13:18:27.780Z,96876.78
2022-12-07T13:21:14.500Z,96890.16
2022-12-07T13:24:02.141Z,96878.28
2022-12-07T13:26:52.478Z,96880.75
2022-12-07T13:29:46.971Z,96868.06
2022-12-07T13:32:39.661Z,96874.66
2022-12-07T13:35:30.910Z,96879.63
2022-12-07T13:38:30.710Z,96873.97
2022-12-07T13:41:22.941Z,96881.78
2022-12-07T13:44:20.106Z,96871.84
2022-12-07T13:47:36.397Z,96870.91
2022-12-07T13:50:40.197Z,96868.25
2022-12-07T13:53:34.396Z,96879.97
2022-12-07T13:56:37.084Z,96873.19
2022-12-07T13:59:36.932Z,96880.78
2022-12-07T14:02:34.776Z,96883.94
2022-12-07T14:05:27.934Z,96871.94
2022-12-07T14:08:15.505Z,96874.22
2022-12-07T14:11:02.846Z,96874.38
2022-12-07T14:13:53.873Z,96879.34
2022-12-07T14:16:45.989Z,96877.03
2022-12-07T14:19:53.580Z,96870.41
2022-12-07T14:22:40.755Z,96872.06
2022-12-07T14:25:33.628Z,96881.00
2022-12-07T14:28:31.979Z,96871.59
2022-12-07T14:31:33.458Z,96866.19
2022-12-07T14:34:24.878Z,96865.81
2022-12-07T14:37:14.481Z,96865.34
2022-12-07T14:40:07.595Z,96873.91
2022-12-07T14:43:14.032Z,96865.34
2022-12-07T14:46:08.320Z,96870.63
2022-12-07T14:55:33.050Z,96846.84
2022-12-07T14:58:20.082Z,96842.25
2022-12-07T15:01:16.637Z,96842.44
2022-12-07T15:04:07.028Z,96847.53
2022-12-07T15:07:08.068Z,96860.09
2022-12-07T15:10:01.708Z,96849.56
2022-12-07T15:12:54.982Z,96840.94
2022-12-07T15:16:02.797Z,96844.72
2022-12-07T15:19:26.142Z,96840.63
2022-12-07T15:22:13.429Z,96844.59
2022-12-07T15:25:01.067Z,96847.53
2022-12-07T15:27:48.345Z,96843.25
2022-12-07T15:31:23.385Z,96840.97
2022-12-07T15:34:12.257Z,96841.13
2022-12-07T15:36:59.289Z,96846.09
2022-12-07T15:39:46.188Z,96846.41
2022-12-07T15:42:33.239Z,96853.63
2022-12-07T15:45:33.342Z,96855.78
2022-12-07T15:48:28.674Z,96852.81
2022-12-07T15:51:24.582Z,96859.41
2022-12-07T15:54:29.423Z,96846.53
2022-12-07T15:57:20.715Z,96844.72
2022-12-07T16:00:11.512Z,96838.63
2022-12-07T16:03:08.312Z,96835.34
2022-12-07T16:06:01.198Z,96843.25
2022-12-07T16:09:00.693Z,96851.97
2022-12-07T16:12:52.401Z,96851.16
2022-12-07T16:15:44.690Z,96847.00
2022-12-07T16:18:44.409Z,96846.19
2022-12-07T16:21:39.978Z,96836.28
2022-12-07T16:24:30.079Z,96830.66
2022-12-07T16:27:26.762Z,96844.84
2022-12-07T16:30:40.431Z,96837.25
2022-12-07T16:33:33.085Z,96836.44
2022-12-07T16:36:54.936Z,96848.63
2022-12-07T16:39:33.861Z,96847.81
2022-12-07T16:42:23.848Z,96842.19
2022-12-07T16:45:19.363Z,96840.81
2022-12-07T16:48:08.775Z,96838.53
2022-12-07T16:51:01.765Z,96840.97
2022-12-07T16:53:48.700Z,96850.22
2022-12-07T16:56:39.140Z,96836.41
2022-12-07T16:59:26.216Z,96832.25
2022-12-07T17:02:15.776Z,96845.13
2022-12-07T17:05:04.610Z,96835.38
2022-12-07T17:07:52.162Z,96831.59
2022-12-07T17:10:42.654Z,96835.88
2022-12-07T17:13:49.458Z,96826.47
2022-12-07T17:16:41.768Z,96835.88
2022-12-07T17:19:39.811Z,96830.09
2022-12-07T17:22:47.346Z,96826.78
2022-12-07T17:25:34.719Z,96824.97
2022-12-07T17:28:35.680Z,96833.56
2022-12-07T17:31:49.498Z,96824.97
2022-12-07T17:34:58.569Z,96828.44
2022-12-07T17:37:51.310Z,96829.59
2022-12-07T17:43:39.661Z,96818.03
2022-12-07T17:50:46.756Z,96821.81
2022-12-07T18:00:47.279Z,96821.47
2022-12-07T18:08:04.714Z,96812.06
2022-12-07T18:14:57.217Z,96807.88
2022-12-07T18:18:02.202Z,96813.66
2022-12-07T18:21:21.345Z,96817.44
2022-12-07T18:28:17.310Z,96824.38
2022-12-07T18:31:30.255Z,96816.38
2022-12-07T18:34:52.157Z,96818.41
2022-12-07T18:37:48.567Z,96817.25
2022-12-07T18:43:59.664Z,96811.28
2022-12-07T18:47:46.592Z,96826.31
2022-12-07T18:51:23.560Z,96817.91
2022-12-07T18:55:12.493Z,96813.09
2022-12-07T19:02:48.223Z,96824.28
2022-12-07T20:42:27.731Z,96775.19
2022-12-07T20:45:56.799Z,96773.22
2022-12-07T20:53:43.849Z,96778.88
2022-12-07T22:01:42.934Z,96744.53
2022-12-07T22:12:24.975Z,96732.00
2022-12-07T22:15:31.715Z,96730.81
2022-12-07T22:25:35.581Z,96732.63
2022-12-07T22:28:32.573Z,96727.50
2022-12-07T22:35:02.787Z,96733.28
2022-12-07T22:38:14.955Z,96722.91
2022-12-07T22:41:27.411Z,96720.00
2022-12-07T22:44:34.744Z,96718.66
2022-12-07T22:47:24.566Z,96720.13
2022-12-07T22:50:21.425Z,96716.03
2022-12-07T22:53:12.951Z,96707.97
2022-12-07T22:56:36.247Z,96693.16
2022-12-07T22:59:27.649Z,96695.13
2022-12-07T23:02:25.192Z,96681.31
2022-12-07T23:08:48.719Z,96676.72
2022-12-07T23:15:22.829Z,96689.78
2022-12-07T23:18:31.956Z,96686.16
2022-12-07T23:21:37.582Z,96683.81
2022-12-07T23:24:59.371Z,96678.91
2022-12-07T23:27:49.395Z,96682.50
2022-12-07T23:30:42.529Z,96681.00
2022-12-07T23:33:39.152Z,96684.59
2022-12-07T23:36:37.053Z,96672.44
2022-12-07T23:39:42.205Z,96676.72
2022-12-07T23:42:44.948Z,96674.25
2022-12-07T23:46:17.814Z,96670.78
2022-12-07T23:49:10.459Z,96662.22
2022-12-07T23:52:14.808Z,96665.53
2022-12-07T23:55:15.563Z,96671.91
2022-12-07T23:58:19.497Z,96655.63
